createdAt,value
2022-12-13T00:02:03.017Z,-2.10
2022-12-13T00:04:34.073Z,-2.08
2022-12-13T00:07:04.638Z,-2.04
2022-12-13T00:09:33.731Z,-2.04
2022-12-13T00:12:03.240Z,-2.01
2022-12-13T00:14:33.907Z,-1.99
2022-12-13T00:17:04.079Z,-2.01
2022-12-13T00:19:35.561Z,-2.00
2022-12-13T00:22:04.797Z,-1.98
2022-12-13T00:24:34.200Z,-1.97
2022-12-13T00:27:03.180Z,-1.96
2022-12-13T00:29:32.914Z,-1.97
2022-12-13T00:32:02.742Z,-1.96
2022-12-13T00:34:33.002Z,-1.92
2022-12-13T00:37:02.899Z,-1.90
2022-12-13T00:39:32.075Z,-1.92
2022-12-13T00:42:00.609Z,-1.93
2022-12-13T00:44:31.252Z,-1.93
2022-12-13T00:46:59.820Z,-1.91
2022-12-13T00:49:29.637Z,-1.90
2022-12-13T00:52:00.246Z,-1.87
2022-12-13T00:54:29.887Z,-1.87
2022-12-13T00:57:00.510Z,-1.87
2022-12-13T00:59:30.958Z,-1.88
2022-12-13T01:02:00.436Z,-1.89
2022-12-13T01:04:29.528Z,-1.89
2022-12-13T01:07:00.361Z,-1.88
2022-12-13T01:09:31.155Z,-1.90
2022-12-13T01:12:01.830Z,-1.90
2022-12-13T01:14:31.633Z,-1.91
2022-12-13T01:17:01.043Z,-1.92
2022-12-13T01:19:30.611Z,-1.94
2022-12-13T01:22:03.829Z,-1.95
2022-12-13T01:24:34.694Z,-1.93
2022-12-13T01:27:04.020Z,-1.93
2022-12-13T01:29:33.817Z,-1.91
2022-12-13T01:32:03.051Z,-1.92
2022-12-13T01:34:33.224Z,-1.94
2022-12-13T01:37:04.672Z,-1.97
2022-12-13T01:39:38.034Z,-1.99
2022-12-13T01:42:15.684Z,-2.00
2022-12-13T01:45:04.473Z,-2.00
2022-12-13T01:47:42.060Z,-2.00
2022-12-13T01:50:18.432Z,-2.01
2022-12-13T01:52:51.245Z,-1.99
2022-12-13T01:55:23.037Z,-2.00
2022-12-13T01:57:54.703Z,-1.97
2022-12-13T02:00:25.993Z,-1.98
2022-12-13T02:02:58.897Z,-1.95
2022-12-13T02:05:36.364Z,-1.91
2022-12-13T02:08:09.053Z,-1.90
2022-12-13T02:10:38.829Z,-1.89
2022-12-13T02:13:08.412Z,-1.88
2022-12-13T02:15:52.399Z,-1.87
2022-12-13T02:18:45.633Z,-1.87
2022-12-13T02:21:24.669Z,-1.85
2022-12-13T02:24:34.001Z,-1.85
2022-12-13T02:27:12.311Z,-1.83
2022-12-13T02:30:22.848Z,-1.81
2022-12-13T02:33:31.792Z,-1.85
2022-12-13T02:36:14.724Z,-1.91
2022-12-13T02:38:57.513Z,-1.90
2022-12-13T02:41:37.467Z,-1.92
2022-12-13T02:44:21.807Z,-1.95
2022-12-13T02:47:00.957Z,-1.94
2022-12-13T02:49:36.030Z,-1.90
2022-12-13T02:52:09.052Z,-1.87
2022-12-13T02:54:42.911Z,-1.85
2022-12-13T02:57:35.885Z,-1.90
2022-12-13T03:00:12.323Z,-1.89
2022-12-13T03:03:06.794Z,-1.90
2022-12-13T03:06:05.675Z,-1.92
2022-12-13T03:08:52.712Z,-1.93
2022-12-13T03:11:23.831Z,-1.95
2022-12-13T03:13:57.623Z,-1.98
2022-12-13T03:16:36.535Z,-2.01
2022-12-13T03:19:10.746Z,-1.99
2022-12-13T03:21:47.055Z,-2.03
2022-12-13T03:24:19.410Z,-2.03
2022-12-13T03:26:50.679Z,-2.06
2022-12-13T03:29:24.109Z,-2.08
2022-12-13T03:31:54.862Z,-2.13
2022-12-13T03:34:24.703Z,-2.14
2022-12-13T03:36:55.107Z,-2.15
2022-12-13T03:39:25.614Z,-2.17
2022-12-13T03:41:55.376Z,-2.16
2022-12-13T03:44:25.010Z,-2.20
2022-12-13T03:47:01.514Z,-2.19
2022-12-13T03:49:35.227Z,-2.16
2022-12-13T03:52:06.978Z,-2.14
2022-12-13T03:54:36.517Z,-2.19
2022-12-13T03:57:05.747Z,-2.19
2022-12-13T03:59:36.023Z,-2.18
2022-12-13T04:02:06.705Z,-2.24
2022-12-13T04:04:37.767Z,-2.26
2022-12-13T04:07:22.445Z,-2.25
2022-12-13T04:09:52.412Z,-2.23
2022-12-13T04:12:39.347Z,-2.23
2022-12-13T04:15:12.951Z,-2.21
2022-12-13T04:17:42.868Z,-2.21
2022-12-13T04:20:22.767Z,-2.23
2022-12-13T04:22:52.258Z,-2.23
2022-12-13T04:25:22.089Z,-2.23
2022-12-13T04:27:51.193Z,-2.25
2022-12-13T04:30:21.683Z,-2.26
2022-12-13T04:32:52.558Z,-2.25
2022-12-13T04:35:23.753Z,-2.26
2022-12-13T04:37:54.722Z,-2.26
2022-12-13T04:40:24.444Z,-2.28
2022-12-13T04:42:54.787Z,-2.29
2022-12-13T04:45:25.417Z,-2.31
2022-12-13T04:47:55.566Z,-2.33
2022-12-13T04:50:26.860Z,-2.34
2022-12-13T04:52:55.675Z,-2.34
2022-12-13T04:55:25.195Z,-2.33
2022-12-13T04:57:54.282Z,-2.33
2022-12-13T05:00:24.725Z,-2.32
2022-12-13T05:02:55.651Z,-2.42
2022-12-13T05:05:26.788Z,-2.42
2022-12-13T05:07:56.348Z,-2.48
2022-12-13T05:10:34.082Z,-2.49
2022-12-13T05:13:07.580Z,-2.52
2022-12-13T05:15:36.449Z,-2.51
2022-12-13T05:18:10.455Z,-2.49
2022-12-13T05:20:42.476Z,-2.51
2022-12-13T05:23:12.503Z,-2.50
2022-12-13T05:25:42.586Z,-2.53
2022-12-13T05:28:28.139Z,-2.53
2022-12-13T05:31:00.688Z,-2.53
2022-12-13T05:33:29.698Z,-2.47
2022-12-13T05:36:02.205Z,-2.46
2022-12-13T05:38:31.504Z,-2.45
2022-12-13T05:41:00.703Z,-2.53
2022-12-13T05:43:42.810Z,-2.59
2022-12-13T05:46:13.441Z,-2.57
2022-12-13T05:48:43.384Z,-2.56
2022-12-13T05:51:14.561Z,-2.59
2022-12-13T05:53:47.325Z,-2.59
2022-12-13T05:56:23.174Z,-2.66
2022-12-13T05:58:54.564Z,-2.66
2022-12-13T06:01:24.601Z,-2.71
2022-12-13T06:03:55.733Z,-2.71
2022-12-13T06:06:26.895Z,-2.74
2022-12-13T06:08:55.906Z,-2.71
2022-12-13T06:11:31.648Z,-2.69
2022-12-13T06:14:02.739Z,-2.69
2022-12-13T06:16:31.576Z,-2.69
2022-12-13T06:19:04.664Z,-2.77
2022-12-13T06:21:41.472Z,-2.75
2022-12-13T06:24:13.405Z,-2.72
2022-12-13T06:26:45.084Z,-2.72
2022-12-13T06:29:23.513Z,-2.79
2022-12-13T06:32:01.232Z,-2.79
2022-12-13T06:34:35.830Z,-2.75
2022-12-13T06:37:10.311Z,-2.74
2022-12-13T06:39:40.371Z,-2.75
2022-12-13T06:42:21.806Z,-2.76
2022-12-13T06:44:55.710Z,-2.83
2022-12-13T06:47:31.726Z,-2.82
2022-12-13T06:50:05.275Z,-2.83
2022-12-13T06:52:37.473Z,-2.82
2022-12-13T06:55:08.233Z,-2.86
2022-12-13T06:57:37.555Z,-2.87
2022-12-13T07:00:13.873Z,-2.89
2022-12-13T07:02:55.282Z,-2.87
2022-12-13T07:05:25.143Z,-2.88
2022-12-13T07:07:56.803Z,-2.92
2022-12-13T07:10:26.343Z,-2.93
2022-12-13T07:12:55.396Z,-2.91
2022-12-13T07:15:24.215Z,-2.92
2022-12-13T07:17:56.652Z,-2.88
2022-12-13T07:20:25.791Z,-2.96
2022-12-13T07:22:58.788Z,-2.99
2022-12-13T07:25:29.521Z,-2.96
2022-12-13T07:28:02.390Z,-2.98
2022-12-13T07:30:41.481Z,-2.97
2022-12-13T07:33:11.612Z,-2.93
2022-12-13T07:35:43.298Z,-2.97
2022-12-13T07:38:14.048Z,-3.01
2022-12-13T07:40:43.096Z,-3.08
2022-12-13T07:43:16.177Z,-3.07
2022-12-13T07:45:46.520Z,-3.07
2022-12-13T07:48:15.850Z,-3.06
2022-12-13T07:50:45.676Z,-3.10
2022-12-13T07:53:25.273Z,-3.11
2022-12-13T07:55:54.697Z,-3.10
2022-12-13T07:58:23.994Z,-3.06
2022-12-13T08:00:53.292Z,-3.03
2022-12-13T08:03:25.152Z,-3.00
2022-12-13T08:06:02.350Z,-3.01
2022-12-13T08:08:33.219Z,-3.02
2022-12-13T08:11:04.274Z,-3.03
2022-12-13T08:13:33.921Z,-3.10
2022-12-13T08:16:04.332Z,-3.03
2022-12-13T08:19:02.970Z,-3.15
2022-12-13T08:21:53.976Z,-3.19
2022-12-13T08:24:26.121Z,-3.20
2022-12-13T08:26:57.584Z,-3.20
2022-12-13T08:29:33.941Z,-3.22
2022-12-13T08:32:06.437Z,-3.26
2022-12-13T08:34:35.773Z,-3.26
2022-12-13T08:37:05.139Z,-3.25
2022-12-13T08:39:37.650Z,-3.24
2022-12-13T08:42:16.286Z,-3.16
2022-12-13T08:44:49.303Z,-3.10
2022-12-13T08:47:23.062Z,-3.06
2022-12-13T08:50:01.308Z,-2.99
2022-12-13T08:52:39.477Z,-3.01
2022-12-13T08:55:15.660Z,-3.06
2022-12-13T08:57:46.501Z,-3.04
2022-12-13T09:00:21.338Z,-3.07
2022-12-13T09:02:53.327Z,-3.06
2022-12-13T09:05:32.960Z,-3.06
2022-12-13T09:08:23.018Z,-3.03
2022-12-13T09:11:00.336Z,-3.03
2022-12-13T09:13:32.533Z,-3.02
2022-12-13T09:16:14.440Z,-2.96
2022-12-13T09:18:55.415Z,-2.91
2022-12-13T09:21:31.262Z,-2.88
2022-12-13T09:24:02.585Z,-2.86
2022-12-13T09:26:37.843Z,-2.85
2022-12-13T09:29:10.713Z,-2.81
2022-12-13T09:31:41.395Z,-2.79
2022-12-13T09:34:11.397Z,-2.76
2022-12-13T09:36:41.154Z,-2.70
2022-12-13T09:39:12.022Z,-2.69
2022-12-13T09:41:48.016Z,-2.69
2022-12-13T09:44:32.446Z,-2.70
2022-12-13T09:47:26.796Z,-2.65
2022-12-13T09:50:15.361Z,-2.57
2022-12-13T09:52:46.968Z,-2.59
2022-12-13T09:55:24.168Z,-2.58
2022-12-13T09:57:55.464Z,-2.53
2022-12-13T10:00:29.822Z,-2.50
2022-12-13T10:03:01.173Z,-2.44
2022-12-13T10:05:38.405Z,-2.40
2022-12-13T10:08:14.990Z,-2.43
2022-12-13T10:10:46.167Z,-2.39
2022-12-13T10:13:22.472Z,-2.37
2022-12-13T10:16:00.763Z,-2.31
2022-12-13T10:18:38.227Z,-2.29
2022-12-13T10:21:14.341Z,-2.27
2022-12-13T10:24:22.671Z,-2.25
2022-12-13T10:26:38.793Z,-2.24
2022-12-13T10:29:10.001Z,-2.21
2022-12-13T10:31:45.023Z,-2.17
2022-12-13T10:34:26.614Z,-2.14
2022-12-13T10:36:59.564Z,-2.10
2022-12-13T10:39:43.249Z,-2.11
2022-12-13T10:42:22.625Z,-2.09
2022-12-13T10:45:15.563Z,-2.11
2022-12-13T10:47:48.027Z,-2.14
2022-12-13T10:50:28.565Z,-2.17
2022-12-13T10:53:01.432Z,-2.14
2022-12-13T10:55:35.273Z,-2.16
2022-12-13T10:58:09.637Z,-2.15
2022-12-13T11:00:45.368Z,-2.12
2022-12-13T11:03:32.604Z,-2.12
2022-12-13T11:06:08.364Z,-2.18
2022-12-13T11:08:38.722Z,-2.13
2022-12-13T11:11:12.406Z,-2.14
2022-12-13T11:13:48.169Z,-2.12
2022-12-13T11:16:28.058Z,-2.10
2022-12-13T11:19:01.541Z,-2.08
2022-12-13T11:21:35.299Z,-2.07
2022-12-13T11:24:09.379Z,-2.08
2022-12-13T11:26:43.014Z,-2.11
2022-12-13T11:29:40.146Z,-2.10
2022-12-13T11:32:27.549Z,-2.11
2022-12-13T11:35:14.976Z,-2.14
2022-12-13T11:37:56.246Z,-2.16
2022-12-13T11:40:30.373Z,-2.24
2022-12-13T11:43:07.556Z,-2.20
2022-12-13T11:45:43.146Z,-2.23
2022-12-13T11:48:24.028Z,-2.24
2022-12-13T11:50:57.031Z,-2.26
2022-12-13T11:53:36.027Z,-2.26
2022-12-13T11:56:17.330Z,-2.28
2022-12-13T11:59:08.534Z,-2.26
2022-12-13T12:01:47.570Z,-2.33
2022-12-13T12:04:32.908Z,-2.33
2022-12-13T12:07:31.239Z,-2.33
2022-12-13T12:10:17.676Z,-2.30
2022-12-13T12:12:56.815Z,-2.31
2022-12-13T12:15:33.366Z,-2.26
2022-12-13T12:18:17.926Z,-2.23
2022-12-13T12:21:09.547Z,-2.24
2022-12-13T12:24:03.100Z,-2.23
2022-12-13T12:26:47.137Z,-2.21
2022-12-13T12:29:42.819Z,-2.20
2022-12-13T12:32:28.101Z,-2.20
2022-12-13T12:35:15.391Z,-2.16
2022-12-13T12:37:55.297Z,-2.19
2022-12-13T12:41:15.615Z,-2.19
2022-12-13T12:43:45.550Z,-2.12
2022-12-13T12:47:17.703Z,-2.15
2022-12-13T12:50:28.450Z,-2.09
2022-12-13T12:53:21.180Z,-2.05
2022-12-13T12:56:07.146Z,-2.04
2022-12-13T12:58:48.927Z,-2.01
2022-12-13T13:01:46.796Z,-1.98
2022-12-13T13:04:23.141Z,-1.94
2022-12-13T13:07:01.566Z,-1.95
2022-12-13T13:09:34.197Z,-1.98
2022-12-13T13:12:29.696Z,-2.01
2022-12-13T13:14:58.231Z,-2.00
2022-12-13T13:17:48.409Z,-2.01
2022-12-13T13:20:24.650Z,-2.02
2022-12-13T13:23:17.520Z,-2.00
2022-12-13T13:28:46.454Z,-2.04
2022-12-13T13:31:17.143Z,-2.06
2022-12-13T13:33:50.286Z,-2.08
2022-12-13T13:36:52.707Z,-2.06
2022-12-13T13:39:57.897Z,-2.08
2022-12-13T13:42:30.303Z,-2.08
2022-12-13T13:45:24.394Z,-2.11
2022-12-13T13:48:21.210Z,-2.07
2022-12-13T13:52:23.870Z,-2.10
2022-12-13T13:55:19.961Z,-2.11
2022-12-13T13:58:40.212Z,-2.12
2022-12-13T14:02:23.078Z,-2.12
2022-12-13T14:06:03.720Z,-2.08
2022-12-13T14:09:05.906Z,-2.09
2022-12-13T14:12:43.187Z,-2.09
2022-12-13T14:16:35.844Z,-2.09
2022-12-13T14:20:11.066Z,-2.08
2022-12-13T14:22:46.850Z,-2.05
2022-12-13T14:25:51.995Z,-2.03
2022-12-13T14:28:36.784Z,-2.00
2022-12-13T14:31:06.664Z,-1.99
2022-12-13T14:33:36.276Z,-2.02
2022-12-13T14:36:06.174Z,-2.04
2022-12-13T14:38:36.855Z,-2.01
2022-12-13T14:41:16.323Z,-1.98
2022-12-13T14:43:50.101Z,-1.99
2022-12-13T14:46:19.936Z,-1.99
2022-12-13T14:48:54.115Z,-1.97
2022-12-13T14:51:34.760Z,-2.01
2022-12-13T14:54:06.828Z,-2.04
2022-12-13T14:56:37.325Z,-2.03
2022-12-13T14:59:14.941Z,-2.03
2022-12-13T15:01:47.708Z,-2.00
2022-12-13T15:04:30.731Z,-2.00
2022-12-13T15:07:06.991Z,-2.05
2022-12-13T15:10:01.018Z,-2.08
2022-12-13T15:12:32.443Z,-2.10
2022-12-13T15:15:06.566Z,-2.11
2022-12-13T15:17:39.006Z,-2.16
2022-12-13T15:20:27.256Z,-2.16
2022-12-13T15:23:03.067Z,-2.21
2022-12-13T15:25:35.111Z,-2.23
2022-12-13T15:28:08.087Z,-2.23
2022-12-13T15:30:38.485Z,-2.31
2022-12-13T15:33:10.511Z,-2.36
2022-12-13T15:35:41.515Z,-2.38
2022-12-13T15:38:28.624Z,-2.36
2022-12-13T15:41:02.817Z,-2.35
2022-12-13T15:43:38.563Z,-2.32
2022-12-13T15:46:08.842Z,-2.29
2022-12-13T15:48:41.939Z,-2.31
2022-12-13T15:51:29.838Z,-2.38
2022-12-13T15:54:27.704Z,-2.42
2022-12-13T15:57:14.763Z,-2.40
2022-12-13T15:59:46.390Z,-2.37
2022-12-13T16:02:21.527Z,-2.35
2022-12-13T16:04:51.908Z,-2.35
2022-12-13T16:07:26.572Z,-2.33
2022-12-13T16:09:56.812Z,-2.34
2022-12-13T16:12:36.532Z,-2.35
2022-12-13T16:15:28.586Z,-2.36
2022-12-13T16:18:15.590Z,-2.36
2022-12-13T16:20:46.515Z,-2.33
2022-12-13T16:23:26.489Z,-2.34
2022-12-13T16:25:57.570Z,-2.41
2022-12-13T16:28:27.327Z,-2.42
2022-12-13T16:31:21.063Z,-2.41
2022-12-13T16:33:50.445Z,-2.42
2022-12-13T16:36:19.351Z,-2.43
2022-12-13T16:38:48.191Z,-2.42
2022-12-13T16:41:18.063Z,-2.43
2022-12-13T16:44:01.546Z,-2.36
2022-12-13T16:47:14.459Z,-2.36
2022-12-13T16:49:27.573Z,-2.42
2022-12-13T16:51:57.619Z,-2.43
2022-12-13T16:54:28.399Z,-2.41
2022-12-13T16:56:58.038Z,-2.39
2022-12-13T16:59:28.580Z,-2.38
2022-12-13T17:02:00.268Z,-2.36
2022-12-13T17:04:30.142Z,-2.34
2022-12-13T17:06:59.594Z,-2.31
2022-12-13T17:09:28.686Z,-2.27
2022-12-13T17:11:58.985Z,-2.29
2022-12-13T17:14:29.184Z,-2.28
2022-12-13T17:17:00.092Z,-2.26
2022-12-13T17:19:29.918Z,-2.24
2022-12-13T17:21:58.723Z,-2.23
2022-12-13T17:24:29.425Z,-2.27
2022-12-13T17:26:58.135Z,-2.31
2022-12-13T17:29:27.428Z,-2.32
2022-12-13T17:31:58.342Z,-2.32
2022-12-13T17:34:29.148Z,-2.32
2022-12-13T17:36:58.550Z,-2.34
2022-12-13T17:39:28.617Z,-2.32
2022-12-13T17:41:58.265Z,-2.32
2022-12-13T17:44:27.838Z,-2.31
2022-12-13T17:46:58.691Z,-2.31
2022-12-13T17:49:28.004Z,-2.36
2022-12-13T17:51:57.442Z,-2.34
2022-12-13T17:54:27.723Z,-2.31
2022-12-13T17:56:56.729Z,-2.29
2022-12-13T17:59:27.261Z,-2.26
2022-12-13T18:01:56.538Z,-2.25
2022-12-13T18:04:27.256Z,-2.26
2022-12-13T18:06:57.471Z,-2.28
2022-12-13T18:09:28.088Z,-2.27
2022-12-13T18:11:58.309Z,-2.26
2022-12-13T18:14:29.711Z,-2.27
2022-12-13T18:16:58.880Z,-2.29
2022-12-13T18:19:32.079Z,-2.27
2022-12-13T18:22:02.602Z,-2.24
2022-12-13T18:24:32.004Z,-2.21
2022-12-13T18:27:00.735Z,-2.21
2022-12-13T18:29:31.259Z,-2.19
2022-12-13T18:32:01.549Z,-2.19
2022-12-13T18:34:32.299Z,-2.19
2022-12-13T18:37:02.738Z,-2.17
2022-12-13T18:39:32.792Z,-2.15
2022-12-13T18:42:02.001Z,-2.19
2022-12-13T18:44:31.412Z,-2.20
2022-12-13T18:47:00.851Z,-2.17
2022-12-13T18:49:32.277Z,-2.16
2022-12-13T18:52:01.721Z,-2.15
2022-12-13T18:54:31.838Z,-2.15
2022-12-13T18:57:00.387Z,-2.12
2022-12-13T18:59:33.354Z,-2.11
2022-12-13T19:02:02.702Z,-2.13
2022-12-13T19:04:35.057Z,-2.13
2022-12-13T19:07:04.470Z,-2.11
2022-12-13T19:09:34.869Z,-2.13
2022-12-13T19:12:04.414Z,-2.19
2022-12-13T19:14:33.609Z,-2.19
2022-12-13T19:17:03.678Z,-2.21
2022-12-13T19:19:35.093Z,-2.22
2022-12-13T19:22:05.272Z,-2.24
2022-12-13T19:24:35.319Z,-2.24
2022-12-13T19:27:04.547Z,-2.26
2022-12-13T19:29:35.251Z,-2.26
2022-12-13T19:32:04.769Z,-2.26
2022-12-13T19:34:35.705Z,-2.25
2022-12-13T19:37:06.764Z,-2.28
2022-12-13T19:39:37.587Z,-2.28
2022-12-13T19:42:07.178Z,-2.28
2022-12-13T19:44:36.189Z,-2.30
2022-12-13T19:47:06.711Z,-2.28
2022-12-13T19:49:37.842Z,-2.26
2022-12-13T19:52:07.289Z,-2.29
2022-12-13T19:54:37.755Z,-2.28
2022-12-13T19:57:07.965Z,-2.27
2022-12-13T19:59:38.130Z,-2.27
2022-12-13T20:02:08.767Z,-2.22
2022-12-13T20:04:40.260Z,-2.26
2022-12-13T20:07:09.358Z,-2.26
2022-12-13T20:09:40.327Z,-2.25
2022-12-13T20:12:10.078Z,-2.23
2022-12-13T20:14:40.391Z,-2.26
2022-12-13T20:17:10.336Z,-2.26
2022-12-13T20:19:40.637Z,-2.27
2022-12-13T20:22:10.354Z,-2.26
2022-12-13T20:24:40.486Z,-2.27
2022-12-13T20:27:09.352Z,-2.29
2022-12-13T20:29:39.345Z,-2.28
2022-12-13T20:32:08.811Z,-2.28
2022-12-13T20:34:41.004Z,-2.24
2022-12-13T20:37:09.484Z,-2.26
2022-12-13T20:39:41.155Z,-2.23
2022-12-13T20:42:11.731Z,-2.20
2022-12-13T20:44:41.368Z,-2.23
2022-12-13T20:47:11.337Z,-2.24
2022-12-13T20:49:44.388Z,-2.23
2022-12-13T20:52:18.357Z,-2.29
2022-12-13T20:54:48.011Z,-2.28
2022-12-13T20:57:17.971Z,-2.24
2022-12-13T20:59:47.340Z,-2.22
2022-12-13T21:02:16.521Z,-2.21
2022-12-13T21:04:47.228Z,-2.19
2022-12-13T21:07:38.541Z,-2.19
2022-12-13T21:10:09.935Z,-2.18
2022-12-13T21:12:40.006Z,-2.21
2022-12-13T21:15:12.349Z,-2.17
2022-12-13T21:17:42.035Z,-2.16
2022-12-13T21:20:13.690Z,-2.19
2022-12-13T21:22:43.374Z,-2.22
2022-12-13T21:25:13.287Z,-2.23
2022-12-13T21:27:43.311Z,-2.23
2022-12-13T21:30:19.470Z,-2.25
2022-12-13T21:32:52.780Z,-2.25
2022-12-13T21:35:26.063Z,-2.27
2022-12-13T21:37:59.635Z,-2.31
2022-12-13T21:40:32.207Z,-2.33
2022-12-13T21:43:02.707Z,-2.28
2022-12-13T21:45:32.796Z,-2.31
2022-12-13T21:48:01.873Z,-2.28
2022-12-13T21:50:32.365Z,-2.29
2022-12-13T21:53:01.725Z,-2.29
2022-12-13T21:55:38.812Z,-2.26
2022-12-13T21:58:28.717Z,-2.23
2022-12-13T22:00:58.487Z,-2.26
2022-12-13T22:03:28.110Z,-2.25
2022-12-13T22:05:58.658Z,-2.25
2022-12-13T22:08:28.931Z,-2.25
2022-12-13T22:11:21.453Z,-2.25
2022-12-13T22:13:52.101Z,-2.24
2022-12-13T22:16:21.825Z,-2.22
2022-12-13T22:18:51.535Z,-2.21
2022-12-13T22:21:21.724Z,-2.19
2022-12-13T22:23:54.731Z,-2.17
2022-12-13T22:26:24.673Z,-2.16
2022-12-13T22:28:54.651Z,-2.21
2022-12-13T22:31:29.482Z,-2.23
2022-12-13T22:33:59.224Z,-2.24
2022-12-13T22:36:29.714Z,-2.22
2022-12-13T22:38:59.251Z,-2.28
2022-12-13T22:41:28.340Z,-2.25
2022-12-13T22:43:58.027Z,-2.25
2022-12-13T22:46:27.266Z,-2.26
2022-12-13T22:48:55.781Z,-2.26
2022-12-13T22:51:25.569Z,-2.28
2022-12-13T22:53:56.846Z,-2.30
2022-12-13T22:56:25.874Z,-2.33
2022-12-13T22:58:55.704Z,-2.29
2022-12-13T23:01:26.964Z,-2.25
2022-12-13T23:03:56.635Z,-2.33
2022-12-13T23:06:29.505Z,-2.33
2022-12-13T23:09:02.618Z,-2.34
2022-12-13T23:11:50.084Z,-2.33
2022-12-13T23:14:21.930Z,-2.35
2022-12-13T23:16:52.457Z,-2.35
2022-12-13T23:22:11.217Z,-2.32
2022-12-13T23:24:42.802Z,-2.32
2022-12-13T23:27:13.401Z,-2.29
2022-12-13T23:29:42.972Z,-2.29
2022-12-13T23:32:13.389Z,-2.27
2022-12-13T23:34:44.011Z,-2.28
2022-12-13T23:37:12.678Z,-2.27
2022-12-13T23:39:43.203Z,-2.28
2022-12-13T23:42:12.222Z,-2.30
2022-12-13T23:44:40.705Z,-2.33
2022-12-13T23:47:10.781Z,-2.32
2022-12-13T23:49:40.302Z,-2.30
2022-12-13T23:52:10.402Z,-2.29
2022-12-13T23:54:42.568Z,-2.28
2022-12-13T23:57:11.913Z,-2.32
2022-12-13T23:59:42.032Z,-2.32
